createdAt,value
2022-12-20T00:00:28.019Z,2.10
2022-12-20T00:05:29.448Z,1.85
2022-12-20T00:10:30.834Z,2.05
2022-12-20T00:15:32.310Z,1.98
2022-12-20T00:20:33.814Z,1.85
2022-12-20T00:25:35.208Z,2.15
2022-12-20T00:30:36.621Z,1.40
2022-12-20T00:35:42.347Z,2.05
2022-12-20T00:40:43.734Z,1.92
2022-12-20T00:45:45.121Z,1.75
2022-12-20T00:50:46.506Z,1.77
2022-12-20T00:55:47.928Z,2.42
2022-12-20T01:00:55.721Z,2.13
2022-12-20T01:06:02.110Z,2.45
2022-12-20T01:11:17.825Z,1.83
2022-12-20T01:21:22.436Z,2.67
2022-12-20T01:26:26.047Z,2.60
2022-12-20T01:31:27.740Z,2.08
2022-12-20T01:36:31.485Z,2.05
2022-12-20T01:41:32.896Z,2.13
2022-12-20T01:46:34.878Z,2.05
2022-12-20T01:51:39.565Z,1.92
2022-12-20T01:56:40.963Z,1.70
2022-12-20T02:01:42.963Z,2.05
2022-12-20T02:06:44.479Z,2.33
2022-12-20T02:11:59.653Z,2.85
2022-12-20T02:17:40.232Z,2.00
2022-12-20T02:23:00.300Z,2.70
2022-12-20T02:28:32.667Z,1.77
2022-12-20T02:33:34.099Z,1.98
2022-12-20T02:38:36.813Z,1.95
2022-12-20T02:43:57.728Z,2.05
2022-12-20T02:49:01.271Z,2.42
2022-12-20T02:54:02.677Z,2.28
2022-12-20T02:59:28.678Z,1.90
2022-12-20T03:04:31.113Z,1.50
2022-12-20T03:09:33.881Z,1.90
2022-12-20T03:14:35.312Z,1.60
2022-12-20T03:19:36.793Z,1.80
2022-12-20T03:24:38.247Z,1.77
2022-12-20T03:29:39.636Z,1.40
2022-12-20T03:34:41.008Z,1.63
2022-12-20T03:39:42.412Z,1.67
2022-12-20T03:44:43.847Z,1.60
2022-12-20T03:49:45.295Z,1.60
2022-12-20T03:54:46.687Z,1.52
2022-12-20T03:59:48.066Z,2.10
2022-12-20T04:04:49.477Z,1.83
2022-12-20T04:09:50.899Z,1.77
2022-12-20T04:14:52.296Z,1.90
2022-12-20T04:19:53.707Z,1.80
2022-12-20T04:24:55.105Z,1.67
2022-12-20T04:29:56.478Z,2.00
2022-12-20T04:34:57.868Z,2.35
2022-12-20T04:39:59.561Z,1.90
2022-12-20T04:45:01.023Z,2.08
2022-12-20T04:50:02.437Z,1.75
2022-12-20T04:55:03.906Z,1.60
2022-12-20T05:00:05.819Z,1.35
2022-12-20T05:05:07.496Z,1.45
2022-12-20T05:10:09.283Z,1.52
2022-12-20T05:15:13.582Z,1.65
2022-12-20T05:20:15.037Z,1.58
2022-12-20T05:25:34.985Z,1.85
2022-12-20T05:30:36.371Z,1.60
2022-12-20T05:35:37.757Z,1.98
2022-12-20T05:40:39.691Z,1.50
2022-12-20T05:45:41.202Z,1.40
2022-12-20T05:50:44.094Z,1.80
2022-12-20T05:55:47.721Z,1.30
2022-12-20T06:00:49.206Z,1.73
2022-12-20T06:05:50.587Z,2.13
2022-12-20T06:10:52.044Z,1.83
2022-12-20T06:15:53.643Z,2.55
2022-12-20T06:20:55.470Z,1.70
2022-12-20T06:25:57.871Z,2.15
2022-12-20T06:30:59.360Z,1.65
2022-12-20T06:36:00.729Z,2.08
2022-12-20T06:41:02.120Z,1.80
2022-12-20T06:46:03.583Z,1.30
2022-12-20T06:51:05.175Z,1.20
2022-12-20T06:56:06.846Z,1.52
2022-12-20T07:01:08.306Z,1.55
2022-12-20T07:06:09.743Z,1.50
2022-12-20T07:11:11.823Z,1.48
2022-12-20T07:16:13.249Z,1.63
2022-12-20T07:21:17.132Z,1.70
2022-12-20T07:26:18.520Z,1.20
2022-12-20T07:31:19.942Z,1.10
2022-12-20T07:36:21.351Z,1.88
2022-12-20T07:41:22.740Z,2.13
2022-12-20T07:46:24.207Z,1.60
2022-12-20T07:51:37.172Z,1.67
2022-12-20T07:56:41.559Z,1.60
2022-12-20T08:01:43.573Z,1.15
2022-12-20T08:06:45.083Z,1.52
2022-12-20T08:11:47.234Z,1.95
2022-12-20T08:16:48.712Z,1.50
2022-12-20T08:21:50.155Z,2.28
2022-12-20T08:26:51.613Z,1.75
2022-12-20T08:31:53.001Z,2.22
2022-12-20T08:36:54.393Z,2.30
2022-12-20T08:41:55.763Z,2.15
2022-12-20T08:46:57.206Z,1.70
2022-12-20T08:51:58.586Z,1.52
2022-12-20T08:56:59.968Z,2.05
2022-12-20T09:02:01.471Z,2.55
2022-12-20T09:07:02.921Z,1.88
2022-12-20T09:12:04.490Z,2.60
2022-12-20T09:17:06.292Z,2.17
2022-12-20T09:22:08.650Z,1.65
2022-12-20T09:27:10.045Z,1.75
2022-12-20T09:32:11.412Z,1.73
2022-12-20T09:37:12.804Z,2.03
2022-12-20T09:42:14.177Z,1.92
2022-12-20T09:47:19.871Z,1.88
2022-12-20T09:52:39.763Z,1.67
2022-12-20T09:58:03.732Z,3.70
2022-12-20T10:03:10.316Z,1.60
2022-12-20T10:08:24.413Z,1.48
2022-12-20T10:13:41.563Z,7.57
2022-12-20T10:18:57.921Z,3.47
2022-12-20T10:24:04.808Z,1.58
2022-12-20T10:29:06.216Z,1.90
2022-12-20T10:34:07.877Z,2.80
2022-12-20T10:39:09.597Z,2.10
2022-12-20T10:44:27.159Z,3.83
2022-12-20T10:49:34.672Z,1.70
2022-12-20T10:54:39.817Z,1.95
2022-12-20T10:59:43.280Z,2.53
2022-12-20T11:04:44.681Z,2.78
2022-12-20T11:09:52.662Z,2.42
2022-12-20T11:15:34.241Z,2.08
2022-12-20T11:21:16.993Z,2.85
2022-12-20T11:26:49.043Z,1.92
2022-12-20T11:32:28.231Z,2.08
2022-12-20T11:37:34.054Z,3.00
2022-12-20T11:48:12.518Z,1.98
2022-12-20T11:53:25.230Z,2.58
2022-12-20T11:58:39.358Z,1.83
2022-12-20T12:03:42.912Z,2.60
2022-12-20T12:08:49.971Z,3.75
2022-12-20T12:13:51.354Z,2.30
2022-12-20T12:18:52.919Z,3.08
2022-12-20T12:23:58.823Z,2.20
2022-12-20T12:29:20.437Z,2.65
2022-12-20T12:34:58.009Z,2.95
2022-12-20T12:40:33.794Z,2.38
2022-12-20T12:45:37.808Z,3.75
2022-12-20T12:50:43.027Z,2.45
2022-12-20T12:55:51.303Z,3.13
2022-12-20T13:00:54.220Z,2.67
2022-12-20T13:05:55.757Z,4.05
2022-12-20T13:10:58.977Z,21.17
2022-12-20T13:16:06.275Z,1.98
2022-12-20T13:21:37.184Z,5.82
2022-12-20T13:26:43.749Z,4.25
2022-12-20T13:31:49.552Z,272.88
2022-12-20T13:36:58.585Z,209.27
2022-12-20T13:42:37.610Z,208.93
2022-12-20T13:47:47.016Z,177.38
2022-12-20T13:52:48.399Z,113.30
2022-12-20T13:57:49.793Z,101.25
2022-12-20T14:02:51.264Z,74.78
2022-12-20T14:07:57.103Z,57.28
2022-12-20T14:18:26.277Z,33.78
2022-12-20T14:23:47.738Z,19.75
2022-12-20T14:28:49.913Z,11.25
2022-12-20T14:33:51.886Z,12.45
2022-12-20T14:38:53.292Z,8.52
2022-12-20T14:43:59.727Z,7.75
2022-12-20T14:49:22.629Z,6.13
2022-12-20T14:55:05.890Z,7.70
2022-12-20T15:00:17.899Z,5.87
2022-12-20T15:05:40.469Z,4.85
2022-12-20T15:11:03.056Z,3.80
2022-12-20T15:16:13.756Z,5.65
2022-12-20T15:21:30.946Z,4.00
2022-12-20T15:26:32.679Z,4.15
2022-12-20T15:31:35.078Z,2.85
2022-12-20T15:36:38.191Z,3.28
2022-12-20T15:41:42.563Z,2.63
2022-12-20T15:46:44.357Z,2.35
2022-12-20T15:51:46.163Z,2.60
2022-12-20T15:56:47.688Z,2.63
2022-12-20T16:01:49.277Z,2.72
2022-12-20T16:06:50.926Z,2.15
2022-12-20T16:11:52.383Z,2.30
2022-12-20T16:16:53.786Z,2.63
2022-12-20T16:21:55.186Z,2.45
2022-12-20T16:26:56.614Z,2.55
2022-12-20T16:31:58.050Z,2.47
2022-12-20T16:37:00.703Z,3.00
2022-12-20T16:42:02.087Z,2.30
2022-12-20T16:47:03.490Z,2.47
2022-12-20T16:52:06.311Z,9.55
2022-12-20T16:57:08.323Z,2.17
2022-12-20T17:02:27.189Z,2.10
2022-12-20T17:07:28.719Z,2.05
2022-12-20T17:12:30.193Z,2.30
2022-12-20T17:17:31.564Z,2.50
2022-12-20T17:22:32.940Z,2.17
2022-12-20T17:27:34.355Z,1.90
2022-12-20T17:32:35.751Z,4.53
2022-12-20T17:37:37.121Z,1.98
2022-12-20T17:42:38.498Z,2.33
2022-12-20T17:47:39.898Z,2.75
2022-12-20T17:52:41.614Z,2.90
2022-12-20T17:57:43.020Z,2.92
2022-12-20T18:02:44.509Z,3.97
2022-12-20T18:07:55.495Z,2.90
2022-12-20T18:12:56.911Z,3.08
2022-12-20T18:17:58.293Z,2.28
2022-12-20T18:22:59.685Z,2.60
2022-12-20T18:28:01.101Z,2.05
2022-12-20T18:33:02.479Z,2.17
2022-12-20T18:38:03.857Z,2.50
2022-12-20T18:43:06.520Z,1.92
2022-12-20T18:48:08.006Z,2.67
2022-12-20T18:53:09.556Z,2.47
2022-12-20T18:58:10.942Z,2.25
2022-12-20T19:03:15.917Z,2.27
2022-12-20T19:08:18.919Z,1.90
2022-12-20T19:13:20.289Z,2.25
2022-12-20T19:18:21.662Z,1.75
2022-12-20T19:23:23.113Z,2.53
2022-12-20T19:28:24.522Z,3.22
2022-12-20T19:33:25.931Z,2.13
2022-12-20T19:38:27.325Z,2.08
2022-12-20T19:43:28.909Z,2.28
2022-12-20T19:48:32.836Z,2.88
2022-12-20T19:53:35.343Z,2.45
2022-12-20T19:58:36.950Z,1.90
2022-12-20T20:03:38.485Z,2.20
2022-12-20T20:08:39.919Z,2.25
2022-12-20T20:13:41.406Z,2.45
2022-12-20T20:18:42.951Z,2.35
2022-12-20T20:23:44.440Z,1.83
2022-12-20T20:28:45.946Z,1.88
2022-12-20T20:33:47.418Z,2.33
2022-12-20T20:38:49.539Z,2.28
2022-12-20T20:43:50.932Z,2.20
2022-12-20T20:48:52.327Z,2.95
2022-12-20T20:53:53.721Z,2.95
2022-12-20T20:59:00.909Z,2.45
2022-12-20T21:04:06.874Z,1.75
2022-12-20T21:09:08.702Z,2.15
2022-12-20T21:14:11.039Z,1.67
2022-12-20T21:19:12.539Z,2.55
2022-12-20T21:24:13.927Z,2.13
2022-12-20T21:29:15.323Z,2.90
2022-12-20T21:34:16.687Z,2.67
2022-12-20T21:39:18.091Z,1.98
2022-12-20T21:44:19.468Z,3.20
2022-12-20T21:49:20.893Z,2.20
2022-12-20T21:54:23.109Z,3.63
2022-12-20T21:59:24.499Z,2.47
2022-12-20T22:04:27.149Z,2.30
2022-12-20T22:09:28.532Z,2.65
2022-12-20T22:14:29.934Z,2.38
2022-12-20T22:19:31.309Z,3.08
2022-12-20T22:24:33.271Z,1.73
2022-12-20T22:29:34.848Z,1.95
2022-12-20T22:34:36.215Z,2.42
2022-12-20T22:39:37.598Z,2.20
2022-12-20T22:44:39.015Z,2.15
2022-12-20T22:49:40.600Z,2.65
2022-12-20T22:54:41.973Z,1.95
2022-12-20T22:59:43.375Z,2.42
2022-12-20T23:04:44.770Z,1.80
2022-12-20T23:09:46.915Z,2.00
2022-12-20T23:15:26.398Z,2.05
2022-12-20T23:20:46.207Z,1.67
2022-12-20T23:25:47.583Z,2.72
2022-12-20T23:30:48.982Z,2.17
2022-12-20T23:35:57.395Z,2.72
2022-12-20T23:40:58.800Z,1.92
2022-12-20T23:46:07.591Z,2.03
2022-12-20T23:51:09.703Z,1.92
2022-12-20T23:56:16.025Z,1.90
